sensor_id;sensor_type;location;lat;lon;timestamp;temperature;humidity
59703;DHT22;45570;48.782;8.332;2023-04-25T09:32:26;7.30;99.90
59703;DHT22;45570;48.782;8.332;2023-04-25T09:34:58;7.40;99.90
59703;DHT22;45570;48.782;8.332;2023-04-25T09:37:30;7.40;99.90
59703;DHT22;45570;48.782;8.332;2023-04-25T09:44:14;7.30;99.90
59703;DHT22;45570;48.782;8.332;2023-04-25T09:46:49;7.30;99.90
59703;DHT22;45570;48.782;8.332;2023-04-25T09:49:25;7.40;99.90
59703;DHT22;45570;48.782;8.332;2023-04-25T09:52:09;7.50;99.90
59703;DHT22;45570;48.782;8.332;2023-04-25T09:54:52;7.70;99.90
59703;DHT22;45570;48.782;8.332;2023-04-25T09:57:29;7.80;99.90
59703;DHT22;45570;48.782;8.332;2023-04-25T10:00:02;7.80;99.90
59703;DHT22;45570;48.782;8.332;2023-04-25T10:02:47;7.90;99.90
59703;DHT22;45570;48.782;8.332;2023-04-25T10:05:47;8.10;99.90
59703;DHT22;45570;48.782;8.332;2023-04-25T10:08:17;8.20;99.90
59703;DHT22;45570;48.782;8.332;2023-04-25T10:10:49;8.10;99.90
59703;DHT22;45570;48.782;8.332;2023-04-25T10:13:18;8.30;99.90
59703;DHT22;45570;48.782;8.332;2023-04-25T10:15:50;8.30;99.90
59703;DHT22;45570;48.782;8.332;2023-04-25T10:18:21;8.40;99.90
59703;DHT22;45570;48.782;8.332;2023-04-25T10:20:51;8.50;99.90
59703;DHT22;45570;48.782;8.332;2023-04-25T10:23:20;8.60;99.90
59703;DHT22;45570;48.782;8.332;2023-04-25T10:25:50;8.40;99.90
59703;DHT22;45570;48.782;8.332;2023-04-25T10:28:20;8.40;99.90
59703;DHT22;45570;48.782;8.332;2023-04-25T10:31:01;8.30;99.90
59703;DHT22;45570;48.782;8.332;2023-04-25T10:33:37;8.30;99.90
59703;DHT22;45570;48.782;8.332;2023-04-25T10:36:11;8.20;99.90
59703;DHT22;45570;48.782;8.332;2023-04-25T10:38:40;8.10;99.90
59703;DHT22;45570;48.782;8.332;2023-04-25T10:41:12;8.20;99.90
59703;DHT22;45570;48.782;8.332;2023-04-25T10:43:43;8.10;99.90
59703;DHT22;45570;48.782;8.332;2023-04-25T10:46:18;8.20;99.90
59703;DHT22;45570;48.782;8.332;2023-04-25T10:48:49;8.20;99.90
59703;DHT22;45570;48.782;8.332;2023-04-25T10:51:21;8.30;99.90
59703;DHT22;45570;48.782;8.332;2023-04-25T10:54:01;8.40;99.90
59703;DHT22;45570;48.782;8.332;2023-04-25T10:56:31;8.50;99.90
59703;DHT22;45570;48.782;8.332;2023-04-25T10:59:06;8.50;99.90
59703;DHT22;45570;48.782;8.332;2023-04-25T11:01:39;8.60;99.90
59703;DHT22;45570;48.782;8.332;2023-04-25T11:04:22;8.60;99.90
59703;DHT22;45570;48.782;8.332;2023-04-25T11:07:10;8.60;99.90
59703;DHT22;45570;48.782;8.332;2023-04-25T11:09:45;8.60;99.90
59703;DHT22;45570;48.782;8.332;2023-04-25T11:12:14;8.60;99.90
59703;DHT22;45570;48.782;8.332;2023-04-25T11:14:45;8.60;99.90
59703;DHT22;45570;48.782;8.332;2023-04-25T11:17:16;8.70;99.90
59703;DHT22;45570;48.782;8.332;2023-04-25T11:19:48;8.70;99.90
59703;DHT22;45570;48.782;8.332;2023-04-25T11:22:18;8.80;99.90
59703;DHT22;45570;48.782;8.332;2023-04-25T11:24:48;8.80;99.90
59703;DHT22;45570;48.782;8.332;2023-04-25T11:27:18;8.80;99.90
59703;DHT22;45570;48.782;8.332;2023-04-25T11:29:48;8.70;99.90
59703;DHT22;45570;48.782;8.332;2023-04-25T11:32:21;8.70;99.90
59703;DHT22;45570;48.782;8.332;2023-04-25T11:34:54;8.70;99.90
59703;DHT22;45570;48.782;8.332;2023-04-25T11:37:24;8.70;99.90
59703;DHT22;45570;48.782;8.332;2023-04-25T11:39:53;8.70;99.90
59703;DHT22;45570;48.782;8.332;2023-04-25T11:42:23;8.60;99.90
59703;DHT22;45570;48.782;8.332;2023-04-25T11:44:52;8.50;99.90
59703;DHT22;45570;48.782;8.332;2023-04-25T11:47:29;8.40;99.90
59703;DHT22;45570;48.782;8.332;2023-04-25T11:49:59;8.20;99.90
59703;DHT22;45570;48.782;8.332;2023-04-25T11:52:47;8.20;99.90
59703;DHT22;45570;48.782;8.332;2023-04-25T11:55:18;8.10;99.90
59703;DHT22;45570;48.782;8.332;2023-04-25T11:57:48;8.00;99.90
59703;DHT22;45570;48.782;8.332;2023-04-25T12:00:20;8.10;99.90
59703;DHT22;45570;48.782;8.332;2023-04-25T12:02:53;8.00;99.90
59703;DHT22;45570;48.782;8.332;2023-04-25T12:05:25;7.90;99.90
59703;DHT22;45570;48.782;8.332;2023-04-25T12:08:10;7.90;99.90
59703;DHT22;45570;48.782;8.332;2023-04-25T12:10:42;7.80;99.90
59703;DHT22;45570;48.782;8.332;2023-04-25T12:13:19;7.80;99.90
59703;DHT22;45570;48.782;8.332;2023-04-25T12:15:49;7.80;99.90
59703;DHT22;45570;48.782;8.332;2023-04-25T12:18:23;7.80;99.90
59703;DHT22;45570;48.782;8.332;2023-04-25T12:20:53;7.80;99.90
59703;DHT22;45570;48.782;8.332;2023-04-25T12:23:26;7.90;99.90
59703;DHT22;45570;48.782;8.332;2023-04-25T12:25:56;8.00;99.90
59703;DHT22;45570;48.782;8.332;2023-04-25T12:28:25;7.90;99.90
59703;DHT22;45570;48.782;8.332;2023-04-25T12:30:57;7.90;99.90
59703;DHT22;45570;48.782;8.332;2023-04-25T12:33:30;7.90;99.90
59703;DHT22;45570;48.782;8.332;2023-04-25T12:36:00;8.00;99.90
59703;DHT22;45570;48.782;8.332;2023-04-25T12:38:36;8.10;99.90
59703;DHT22;45570;48.782;8.332;2023-04-25T12:41:06;8.30;99.90
59703;DHT22;45570;48.782;8.332;2023-04-25T12:43:36;8.20;99.90
59703;DHT22;45570;48.782;8.332;2023-04-25T12:46:05;8.30;99.90
59703;DHT22;45570;48.782;8.332;2023-04-25T12:48:38;8.20;99.90
59703;DHT22;45570;48.782;8.332;2023-04-25T12:51:08;8.20;99.90
59703;DHT22;45570;48.782;8.332;2023-04-25T12:53:38;8.20;99.90
59703;DHT22;45570;48.782;8.332;2023-04-25T12:56:11;8.30;99.90
59703;DHT22;45570;48.782;8.332;2023-04-25T12:58:41;8.20;99.90
59703;DHT22;45570;48.782;8.332;2023-04-25T13:01:12;8.30;99.90
59703;DHT22;45570;48.782;8.332;2023-04-25T13:03:43;8.20;99.90
59703;DHT22;45570;48.782;8.332;2023-04-25T13:06:13;8.30;99.90
59703;DHT22;45570;48.782;8.332;2023-04-25T13:08:43;8.40;99.90
59703;DHT22;45570;48.782;8.332;2023-04-25T13:11:13;8.40;99.90
59703;DHT22;45570;48.782;8.332;2023-04-25T13:13:44;8.50;99.90
59703;DHT22;45570;48.782;8.332;2023-04-25T13:16:13;8.60;99.90
59703;DHT22;45570;48.782;8.332;2023-04-25T13:18:45;8.70;99.90
59703;DHT22;45570;48.782;8.332;2023-04-25T13:21:15;8.80;99.90
59703;DHT22;45570;48.782;8.332;2023-04-25T13:23:44;8.80;99.90
59703;DHT22;45570;48.782;8.332;2023-04-25T13:26:14;8.80;99.90
59703;DHT22;45570;48.782;8.332;2023-04-25T13:28:44;8.90;99.90
59703;DHT22;45570;48.782;8.332;2023-04-25T13:31:13;8.90;99.90
59703;DHT22;45570;48.782;8.332;2023-04-25T13:33:45;9.00;99.90
59703;DHT22;45570;48.782;8.332;2023-04-25T13:36:15;9.00;99.90
59703;DHT22;45570;48.782;8.332;2023-04-25T13:38:44;9.10;99.90
59703;DHT22;45570;48.782;8.332;2023-04-25T13:41:15;9.20;99.90
59703;DHT22;45570;48.782;8.332;2023-04-25T13:43:46;9.20;99.90
59703;DHT22;45570;48.782;8.332;2023-04-25T13:46:16;9.30;99.90
59703;DHT22;45570;48.782;8.332;2023-04-25T13:48:50;9.50;99.90
59703;DHT22;45570;48.782;8.332;2023-04-25T13:51:26;9.70;99.90
59703;DHT22;45570;48.782;8.332;2023-04-25T13:53:58;9.90;99.90
59703;DHT22;45570;48.782;8.332;2023-04-25T13:56:28;10.30;99.90
59703;DHT22;45570;48.782;8.332;2023-04-25T13:58:58;10.60;99.90
59703;DHT22;45570;48.782;8.332;2023-04-25T14:01:27;11.00;99.90
59703;DHT22;45570;48.782;8.332;2023-04-25T14:04:00;11.30;99.90
59703;DHT22;45570;48.782;8.332;2023-04-25T14:06:30;11.60;99.90
59703;DHT22;45570;48.782;8.332;2023-04-25T14:09:00;11.20;99.90
59703;DHT22;45570;48.782;8.332;2023-04-25T14:11:31;10.90;99.90
59703;DHT22;45570;48.782;8.332;2023-04-25T14:14:01;10.60;99.90
59703;DHT22;45570;48.782;8.332;2023-04-25T14:16:30;10.40;99.90
59703;DHT22;45570;48.782;8.332;2023-04-25T14:19:01;10.30;99.90
59703;DHT22;45570;48.782;8.332;2023-04-25T14:25:45;10.60;99.90
59703;DHT22;45570;48.782;8.332;2023-04-25T14:28:35;11.10;99.90
59703;DHT22;45570;48.782;8.332;2023-04-25T14:31:14;11.50;99.90
59703;DHT22;45570;48.782;8.332;2023-04-25T14:33:54;11.80;99.90
59703;DHT22;45570;48.782;8.332;2023-04-25T14:36:33;11.60;99.90
59703;DHT22;45570;48.782;8.332;2023-04-25T14:39:03;11.30;99.90
59703;DHT22;45570;48.782;8.332;2023-04-25T14:41:32;11.20;99.90
59703;DHT22;45570;48.782;8.332;2023-04-25T14:44:02;11.20;99.90
59703;DHT22;45570;48.782;8.332;2023-04-25T14:46:31;11.40;99.90
59703;DHT22;45570;48.782;8.332;2023-04-25T14:49:01;11.60;99.90
59703;DHT22;45570;48.782;8.332;2023-04-25T14:51:32;11.60;99.90
59703;DHT22;45570;48.782;8.332;2023-04-25T14:54:02;11.50;99.90
59703;DHT22;45570;48.782;8.332;2023-04-25T14:56:32;11.50;99.90
59703;DHT22;45570;48.782;8.332;2023-04-25T14:59:01;11.50;99.90
59703;DHT22;45570;48.782;8.332;2023-04-25T15:01:31;11.50;99.90
59703;DHT22;45570;48.782;8.332;2023-04-25T15:04:00;11.40;99.90
59703;DHT22;45570;48.782;8.332;2023-04-25T15:06:33;11.30;99.90
59703;DHT22;45570;48.782;8.332;2023-04-25T15:09:03;11.20;99.90
59703;DHT22;45570;48.782;8.332;2023-04-25T15:11:32;11.40;99.90
59703;DHT22;45570;48.782;8.332;2023-04-25T15:14:02;11.60;99.90
59703;DHT22;45570;48.782;8.332;2023-04-25T15:16:31;11.60;99.90
59703;DHT22;45570;48.782;8.332;2023-04-25T15:19:01;11.60;99.90
59703;DHT22;45570;48.782;8.332;2023-04-25T15:21:33;11.60;99.90
59703;DHT22;45570;48.782;8.332;2023-04-25T15:24:03;11.60;99.90
59703;DHT22;45570;48.782;8.332;2023-04-25T15:26:33;11.40;99.90
59703;DHT22;45570;48.782;8.332;2023-04-25T15:29:03;11.40;99.90
59703;DHT22;45570;48.782;8.332;2023-04-25T15:31:33;11.40;99.90
59703;DHT22;45570;48.782;8.332;2023-04-25T15:34:03;11.40;99.90
59703;DHT22;45570;48.782;8.332;2023-04-25T15:36:34;11.20;99.90
59703;DHT22;45570;48.782;8.332;2023-04-25T15:39:04;11.10;99.90
59703;DHT22;45570;48.782;8.332;2023-04-25T15:41:33;11.10;99.90
59703;DHT22;45570;48.782;8.332;2023-04-25T15:44:03;11.20;99.90
59703;DHT22;45570;48.782;8.332;2023-04-25T15:46:32;11.20;99.90
59703;DHT22;45570;48.782;8.332;2023-04-25T15:49:02;11.10;99.90
59703;DHT22;45570;48.782;8.332;2023-04-25T15:51:31;10.90;99.90
59703;DHT22;45570;48.782;8.332;2023-04-25T15:54:03;10.80;99.90
59703;DHT22;45570;48.782;8.332;2023-04-25T15:56:33;10.70;99.90
59703;DHT22;45570;48.782;8.332;2023-04-25T15:59:03;10.50;99.90
59703;DHT22;45570;48.782;8.332;2023-04-25T16:01:32;10.40;99.90
59703;DHT22;45570;48.782;8.332;2023-04-25T16:04:02;10.20;99.90
59703;DHT22;45570;48.782;8.332;2023-04-25T16:06:31;9.90;99.90
59703;DHT22;45570;48.782;8.332;2023-04-25T16:09:03;9.70;99.90
59703;DHT22;45570;48.782;8.332;2023-04-25T16:11:33;9.60;99.90
59703;DHT22;45570;48.782;8.332;2023-04-25T16:14:02;9.30;99.90
59703;DHT22;45570;48.782;8.332;2023-04-25T16:16:45;9.00;99.90
59703;DHT22;45570;48.782;8.332;2023-04-25T16:20:27;8.90;99.90
59703;DHT22;45570;48.782;8.332;2023-04-25T16:23:25;8.80;99.90
59703;DHT22;45570;48.782;8.332;2023-04-25T16:26:22;8.70;99.90
59703;DHT22;45570;48.782;8.332;2023-04-25T16:29:10;8.60;99.90
59703;DHT22;45570;48.782;8.332;2023-04-25T16:31:51;8.60;99.90
59703;DHT22;45570;48.782;8.332;2023-04-25T16:34:21;8.50;99.90
59703;DHT22;45570;48.782;8.332;2023-04-25T16:36:54;8.50;99.90
59703;DHT22;45570;48.782;8.332;2023-04-25T16:39:23;8.50;99.90
59703;DHT22;45570;48.782;8.332;2023-04-25T16:41:54;8.50;99.90
59703;DHT22;45570;48.782;8.332;2023-04-25T16:44:24;8.50;99.90
59703;DHT22;45570;48.782;8.332;2023-04-25T16:46:53;8.50;99.90
59703;DHT22;45570;48.782;8.332;2023-04-25T16:49:23;8.50;99.90
59703;DHT22;45570;48.782;8.332;2023-04-25T16:51:53;8.60;99.90
59703;DHT22;45570;48.782;8.332;2023-04-25T16:54:25;8.60;99.90
59703;DHT22;45570;48.782;8.332;2023-04-25T16:57:05;8.60;99.90
59703;DHT22;45570;48.782;8.332;2023-04-25T16:59:38;8.70;99.90
59703;DHT22;45570;48.782;8.332;2023-04-25T17:02:11;8.70;99.90
59703;DHT22;45570;48.782;8.332;2023-04-25T17:04:40;8.80;99.90
59703;DHT22;45570;48.782;8.332;2023-04-25T17:07:10;8.80;99.90
59703;DHT22;45570;48.782;8.332;2023-04-25T17:09:40;8.80;99.90
59703;DHT22;45570;48.782;8.332;2023-04-25T17:12:11;8.80;99.90
59703;DHT22;45570;48.782;8.332;2023-04-25T17:14:40;8.80;99.90
59703;DHT22;45570;48.782;8.332;2023-04-25T17:17:10;8.80;99.90
59703;DHT22;45570;48.782;8.332;2023-04-25T17:19:39;8.80;99.90
59703;DHT22;45570;48.782;8.332;2023-04-25T17:22:09;8.70;99.90
59703;DHT22;45570;48.782;8.332;2023-04-25T17:24:38;8.70;99.90
59703;DHT22;45570;48.782;8.332;2023-04-25T17:27:10;8.70;99.90
59703;DHT22;45570;48.782;8.332;2023-04-25T17:29:40;8.80;99.90
59703;DHT22;45570;48.782;8.332;2023-04-25T17:32:10;8.80;99.90
59703;DHT22;45570;48.782;8.332;2023-04-25T17:34:42;8.70;99.90
59703;DHT22;45570;48.782;8.332;2023-04-25T17:37:13;8.70;99.90
59703;DHT22;45570;48.782;8.332;2023-04-25T17:39:43;8.70;99.90
59703;DHT22;45570;48.782;8.332;2023-04-25T17:42:15;8.70;99.90
59703;DHT22;45570;48.782;8.332;2023-04-25T17:44:44;8.70;99.90
59703;DHT22;45570;48.782;8.332;2023-04-25T17:47:14;8.60;99.90
59703;DHT22;45570;48.782;8.332;2023-04-25T17:49:44;8.60;99.90
59703;DHT22;45570;48.782;8.332;2023-04-25T17:52:13;8.50;99.90
59703;DHT22;45570;48.782;8.332;2023-04-25T17:54:43;8.50;99.90
59703;DHT22;45570;48.782;8.332;2023-04-25T17:57:17;8.50;99.90
59703;DHT22;45570;48.782;8.332;2023-04-25T17:59:48;8.50;99.90
59703;DHT22;45570;48.782;8.332;2023-04-25T18:02:17;8.50;99.90
59703;DHT22;45570;48.782;8.332;2023-04-25T18:04:46;8.50;99.90
59703;DHT22;45570;48.782;8.332;2023-04-25T18:07:15;8.40;99.90
59703;DHT22;45570;48.782;8.332;2023-04-25T18:09:45;8.40;99.90
59703;DHT22;45570;48.782;8.332;2023-04-25T18:12:16;8.40;99.90
59703;DHT22;45570;48.782;8.332;2023-04-25T18:14:45;8.40;99.90
59703;DHT22;45570;48.782;8.332;2023-04-25T18:17:14;8.30;99.90
59703;DHT22;45570;48.782;8.332;2023-04-25T18:19:43;8.30;99.90
59703;DHT22;45570;48.782;8.332;2023-04-25T18:22:13;8.30;99.90
59703;DHT22;45570;48.782;8.332;2023-04-25T18:24:42;8.30;99.90
59703;DHT22;45570;48.782;8.332;2023-04-25T18:27:13;8.30;99.90
59703;DHT22;45570;48.782;8.332;2023-04-25T18:29:44;8.30;99.90
59703;DHT22;45570;48.782;8.332;2023-04-25T18:32:13;8.20;99.90
59703;DHT22;45570;48.782;8.332;2023-04-25T18:34:42;8.20;99.90
59703;DHT22;45570;48.782;8.332;2023-04-25T18:37:13;8.10;99.90
59703;DHT22;45570;48.782;8.332;2023-04-25T18:39:43;8.20;99.90
59703;DHT22;45570;48.782;8.332;2023-04-25T18:42:12;8.40;99.90
59703;DHT22;45570;48.782;8.332;2023-04-25T18:44:43;8.30;99.90
59703;DHT22;45570;48.782;8.332;2023-04-25T18:47:13;8.20;99.90
59703;DHT22;45570;48.782;8.332;2023-04-25T18:49:43;8.10;99.90
59703;DHT22;45570;48.782;8.332;2023-04-25T18:52:14;8.10;99.90
59703;DHT22;45570;48.782;8.332;2023-04-25T18:54:44;8.10;99.90
59703;DHT22;45570;48.782;8.332;2023-04-25T18:57:14;8.10;99.90
59703;DHT22;45570;48.782;8.332;2023-04-25T18:59:46;8.00;99.90
59703;DHT22;45570;48.782;8.332;2023-04-25T19:02:15;8.10;99.90
59703;DHT22;45570;48.782;8.332;2023-04-25T19:04:46;8.00;99.90
59703;DHT22;45570;48.782;8.332;2023-04-25T19:07:15;8.00;99.90
59703;DHT22;45570;48.782;8.332;2023-04-25T19:09:44;8.00;99.90
59703;DHT22;45570;48.782;8.332;2023-04-25T19:12:14;7.90;99.90
59703;DHT22;45570;48.782;8.332;2023-04-25T19:14:45;7.90;99.90
59703;DHT22;45570;48.782;8.332;2023-04-25T19:17:15;7.80;99.90
59703;DHT22;45570;48.782;8.332;2023-04-25T19:19:44;7.80;99.90
59703;DHT22;45570;48.782;8.332;2023-04-25T19:22:13;7.80;99.90
59703;DHT22;45570;48.782;8.332;2023-04-25T19:24:43;7.80;99.90
59703;DHT22;45570;48.782;8.332;2023-04-25T19:27:19;7.80;99.90
59703;DHT22;45570;48.782;8.332;2023-04-25T19:29:50;7.80;99.90
59703;DHT22;45570;48.782;8.332;2023-04-25T19:32:25;7.80;99.90
59703;DHT22;45570;48.782;8.332;2023-04-25T19:34:54;7.70;99.90
59703;DHT22;45570;48.782;8.332;2023-04-25T19:37:23;7.70;99.90
59703;DHT22;45570;48.782;8.332;2023-04-25T19:39:52;7.70;99.90
59703;DHT22;45570;48.782;8.332;2023-04-25T19:42:22;7.70;99.90
59703;DHT22;45570;48.782;8.332;2023-04-25T19:44:53;7.70;99.90
59703;DHT22;45570;48.782;8.332;2023-04-25T19:47:23;7.70;99.90
59703;DHT22;45570;48.782;8.332;2023-04-25T19:49:54;7.70;99.90
59703;DHT22;45570;48.782;8.332;2023-04-25T19:52:24;7.70;99.90
59703;DHT22;45570;48.782;8.332;2023-04-25T19:54:54;7.70;99.90
59703;DHT22;45570;48.782;8.332;2023-04-25T19:57:24;7.70;99.90
59703;DHT22;45570;48.782;8.332;2023-04-25T19:59:56;7.60;99.90
59703;DHT22;45570;48.782;8.332;2023-04-25T20:02:25;7.60;99.90
59703;DHT22;45570;48.782;8.332;2023-04-25T20:04:55;7.60;99.90
59703;DHT22;45570;48.782;8.332;2023-04-25T20:07:24;7.60;99.90
59703;DHT22;45570;48.782;8.332;2023-04-25T20:09:53;7.60;99.90
59703;DHT22;45570;48.782;8.332;2023-04-25T20:12:23;7.50;99.90
59703;DHT22;45570;48.782;8.332;2023-04-25T20:14:52;7.60;99.90
59703;DHT22;45570;48.782;8.332;2023-04-25T20:17:24;7.50;99.90
